createdAt,value
2022-11-14T00:01:26.662Z,12.68
2022-11-14T00:04:48.309Z,13.18
2022-11-14T00:08:18.785Z,16.40
2022-11-14T00:11:39.528Z,14.45
2022-11-14T00:15:00.201Z,14.23
2022-11-14T00:18:21.809Z,14.25
2022-11-14T00:21:42.504Z,11.43
2022-11-14T00:25:07.477Z,16.23
2022-11-14T00:28:28.165Z,13.45
2022-11-14T00:31:48.868Z,12.35
2022-11-14T00:35:09.975Z,16.77
2022-11-14T00:38:30.513Z,17.73
2022-11-14T00:41:51.236Z,16.80
2022-11-14T00:45:12.163Z,16.40
2022-11-14T00:48:32.745Z,13.93
2022-11-14T00:51:53.501Z,14.50
2022-11-14T00:55:13.909Z,20.88
2022-11-14T00:58:36.078Z,14.63
2022-11-14T01:01:58.271Z,17.55
2022-11-14T01:05:19.083Z,15.57
2022-11-14T01:08:39.453Z,19.58
2022-11-14T01:12:00.023Z,13.10
2022-11-14T01:15:20.714Z,15.00
2022-11-14T01:18:41.563Z,12.40
2022-11-14T01:22:06.293Z,15.85
2022-11-14T01:25:26.950Z,15.77
2022-11-14T01:28:47.636Z,12.32
2022-11-14T01:32:08.456Z,10.50
2022-11-14T01:35:29.231Z,14.10
2022-11-14T01:38:53.964Z,11.77
2022-11-14T01:42:15.714Z,16.38
2022-11-14T01:45:59.132Z,12.45
2022-11-14T01:49:25.078Z,11.65
2022-11-14T01:52:46.783Z,18.60
2022-11-14T01:56:09.566Z,9.98
2022-11-14T01:59:38.353Z,11.80
2022-11-14T02:03:00.379Z,13.30
2022-11-14T02:06:24.313Z,11.98
2022-11-14T02:09:47.231Z,13.38
2022-11-14T02:13:08.710Z,15.30
2022-11-14T02:16:29.372Z,10.48
2022-11-14T02:19:53.352Z,12.07
2022-11-14T02:23:13.851Z,9.02
2022-11-14T02:26:36.766Z,8.63
2022-11-14T02:30:27.174Z,9.48
2022-11-14T02:33:47.887Z,14.77
2022-11-14T02:37:08.551Z,12.20
2022-11-14T02:40:29.217Z,12.50
2022-11-14T02:43:49.722Z,10.40
2022-11-14T02:47:10.557Z,13.48
2022-11-14T02:50:31.506Z,10.05
2022-11-14T02:53:52.191Z,7.10
2022-11-14T02:57:12.436Z,9.52
2022-11-14T03:00:32.671Z,6.43
2022-11-14T03:03:53.058Z,10.27
2022-11-14T03:07:13.584Z,10.93
2022-11-14T03:10:34.542Z,10.50
2022-11-14T03:13:55.483Z,10.25
2022-11-14T03:17:16.980Z,11.20
2022-11-14T03:20:37.520Z,9.32
2022-11-14T03:23:57.917Z,9.93
2022-11-14T03:27:18.487Z,11.27
2022-11-14T03:30:39.233Z,10.02
2022-11-14T03:34:00.051Z,5.88
2022-11-14T03:37:20.797Z,6.47
2022-11-14T03:40:41.435Z,11.75
2022-11-14T03:44:01.823Z,7.53
2022-11-14T03:47:22.598Z,8.65
2022-11-14T03:50:43.848Z,6.50
2022-11-14T03:54:04.630Z,6.28
2022-11-14T03:57:25.349Z,12.13
2022-11-14T04:00:45.813Z,13.35
2022-11-14T04:04:06.544Z,5.93
2022-11-14T04:07:27.243Z,8.85
2022-11-14T04:10:49.009Z,6.53
2022-11-14T04:14:10.482Z,10.10
2022-11-14T04:17:34.486Z,9.38
2022-11-14T04:20:57.645Z,9.23
2022-11-14T04:24:18.555Z,7.18
2022-11-14T04:27:39.200Z,13.38
2022-11-14T04:31:00.674Z,10.75
2022-11-14T04:34:21.575Z,9.43
2022-11-14T04:37:41.839Z,6.45
2022-11-14T04:41:02.165Z,6.25
2022-11-14T04:44:22.510Z,6.07
2022-11-14T04:47:43.358Z,8.45
2022-11-14T04:51:04.188Z,9.73
2022-11-14T04:54:24.620Z,13.27
2022-11-14T04:57:45.785Z,6.20
2022-11-14T05:01:11.162Z,12.85
2022-11-14T05:04:33.138Z,12.10
2022-11-14T05:07:55.292Z,8.27
2022-11-14T05:11:17.161Z,9.82
2022-11-14T05:14:37.921Z,7.50
2022-11-14T05:17:59.101Z,9.13
2022-11-14T05:21:19.512Z,14.50
2022-11-14T05:24:40.045Z,9.45
2022-11-14T05:28:02.183Z,9.90
2022-11-14T05:31:22.697Z,13.25
2022-11-14T05:34:43.458Z,9.02
2022-11-14T05:38:04.098Z,7.63
2022-11-14T05:41:24.876Z,7.72
2022-11-14T05:44:45.477Z,9.05
2022-11-14T05:48:06.436Z,7.10
2022-11-14T05:51:26.827Z,8.32
2022-11-14T05:54:47.422Z,10.80
2022-11-14T05:58:08.035Z,8.18
2022-11-14T06:01:28.865Z,8.20
2022-11-14T06:04:49.513Z,9.52
2022-11-14T06:08:10.376Z,5.60
2022-11-14T06:11:30.968Z,11.88
2022-11-14T06:14:51.296Z,8.02
2022-11-14T06:18:11.946Z,6.65
2022-11-14T06:21:32.442Z,9.98
2022-11-14T06:24:52.855Z,9.73
2022-11-14T06:28:13.475Z,9.65
2022-11-14T06:31:34.280Z,7.00
2022-11-14T06:34:56.116Z,11.55
2022-11-14T06:38:16.690Z,8.50
2022-11-14T06:41:37.408Z,6.80
2022-11-14T06:44:58.024Z,10.43
2022-11-14T06:48:18.396Z,15.70
2022-11-14T06:51:38.813Z,11.52
2022-11-14T06:54:59.082Z,12.35
2022-11-14T06:58:19.569Z,11.93
2022-11-14T07:01:40.014Z,14.18
2022-11-14T07:05:00.527Z,14.38
2022-11-14T07:08:21.436Z,14.23
2022-11-14T07:11:42.227Z,10.68
2022-11-14T07:15:03.115Z,14.60
2022-11-14T07:18:25.280Z,10.77
2022-11-14T07:21:46.048Z,10.60
2022-11-14T07:25:07.471Z,9.95
2022-11-14T07:28:28.556Z,9.32
2022-11-14T07:31:50.772Z,8.45
2022-11-14T07:35:11.506Z,10.35
2022-11-14T07:38:35.908Z,9.98
2022-11-14T07:41:57.305Z,11.00
2022-11-14T07:45:20.218Z,11.57
2022-11-14T07:48:41.321Z,11.80
2022-11-14T07:55:52.938Z,9.25
2022-11-14T07:59:13.738Z,10.13
2022-11-14T08:02:34.175Z,11.90
2022-11-14T08:06:08.589Z,10.13
2022-11-14T08:09:29.154Z,10.00
2022-11-14T08:13:17.572Z,7.80
2022-11-14T08:16:39.546Z,5.17
2022-11-14T08:20:00.390Z,9.85
2022-11-14T08:23:21.228Z,9.13
2022-11-14T08:26:42.024Z,10.80
2022-11-14T08:30:02.722Z,6.22
2022-11-14T08:33:22.911Z,8.68
2022-11-14T08:36:43.574Z,10.40
2022-11-14T08:40:04.959Z,9.38
2022-11-14T08:43:25.760Z,9.43
2022-11-14T08:46:46.533Z,10.55
2022-11-14T08:50:07.463Z,8.45
2022-11-14T08:53:28.681Z,8.30
2022-11-14T08:56:49.430Z,10.13
2022-11-14T09:00:10.740Z,6.70
2022-11-14T09:03:31.492Z,8.23
2022-11-14T09:06:52.488Z,10.77
2022-11-14T09:10:13.474Z,9.20
2022-11-14T09:13:35.302Z,6.13
2022-11-14T09:16:55.930Z,8.73
2022-11-14T09:20:16.425Z,9.57
2022-11-14T09:23:37.033Z,13.73
2022-11-14T09:26:57.433Z,9.30
2022-11-14T09:30:18.038Z,14.13
2022-11-14T09:33:43.397Z,16.88
2022-11-14T09:37:03.847Z,10.20
2022-11-14T09:40:24.243Z,10.50
2022-11-14T09:44:23.339Z,14.50
2022-11-14T09:47:59.559Z,9.93
2022-11-14T09:51:22.568Z,13.23
2022-11-14T09:54:49.348Z,16.20
2022-11-14T09:58:18.347Z,8.35
2022-11-14T10:01:41.676Z,8.35
2022-11-14T10:05:09.325Z,12.40
2022-11-14T10:08:58.691Z,9.88
2022-11-14T10:12:44.268Z,7.70
2022-11-14T10:16:11.246Z,11.55
2022-11-14T10:19:43.039Z,7.75
2022-11-14T10:23:19.706Z,7.05
2022-11-14T10:27:07.341Z,8.90
2022-11-14T10:30:38.812Z,14.40
2022-11-14T10:34:09.356Z,8.90
2022-11-14T10:37:33.400Z,8.30
2022-11-14T10:40:59.496Z,11.50
2022-11-14T10:44:28.108Z,9.60
2022-11-14T10:47:56.236Z,17.88
2022-11-14T10:51:26.659Z,13.60
2022-11-14T10:55:15.279Z,10.23
2022-11-14T10:58:47.958Z,13.15
2022-11-14T11:02:10.312Z,13.45
2022-11-14T11:05:31.162Z,10.48
2022-11-14T11:09:09.867Z,11.25
2022-11-14T11:12:42.559Z,13.05
2022-11-14T11:16:05.047Z,15.63
2022-11-14T11:19:27.807Z,14.20
2022-11-14T11:22:48.443Z,12.48
2022-11-14T11:26:25.646Z,12.55
2022-11-14T11:29:47.282Z,10.85
2022-11-14T11:33:24.540Z,10.90
2022-11-14T11:36:50.536Z,16.45
2022-11-14T11:40:17.746Z,9.45
2022-11-14T11:43:57.040Z,11.70
2022-11-14T11:47:19.610Z,14.70
2022-11-14T11:50:42.475Z,12.25
2022-11-14T11:54:12.263Z,12.73
2022-11-14T11:57:37.102Z,15.13
2022-11-14T12:00:58.278Z,9.13
2022-11-14T12:04:19.050Z,12.13
2022-11-14T12:07:51.048Z,9.35
2022-11-14T12:11:17.252Z,9.63
2022-11-14T12:15:04.434Z,11.80
2022-11-14T12:18:57.790Z,12.63
2022-11-14T12:22:51.725Z,11.35
2022-11-14T12:26:33.465Z,10.43
2022-11-14T12:30:19.150Z,17.05
2022-11-14T12:34:00.395Z,8.30
2022-11-14T12:37:27.117Z,10.85
2022-11-14T12:40:54.500Z,11.27
2022-11-14T12:44:39.065Z,26.23
2022-11-14T12:48:27.427Z,10.52
2022-11-14T12:51:51.519Z,12.48
2022-11-14T12:55:24.624Z,12.48
2022-11-14T12:59:12.441Z,11.43
2022-11-14T13:03:08.274Z,12.75
2022-11-14T13:06:44.005Z,14.18
2022-11-14T13:10:14.489Z,12.90
2022-11-14T13:14:20.195Z,9.88
2022-11-14T13:18:01.656Z,11.45
2022-11-14T13:25:06.762Z,11.75
2022-11-14T13:28:36.499Z,18.55
2022-11-14T13:31:57.321Z,15.98
2022-11-14T13:35:49.379Z,11.50
2022-11-14T13:39:09.993Z,12.80
2022-11-14T13:42:42.482Z,13.60
2022-11-14T13:46:34.334Z,12.60
2022-11-14T13:50:04.571Z,24.88
2022-11-14T13:53:29.769Z,30.30
2022-11-14T13:56:57.955Z,30.33
2022-11-14T14:00:21.033Z,26.58
2022-11-14T14:04:09.223Z,35.60
2022-11-14T14:07:55.753Z,35.13
2022-11-14T14:11:25.483Z,16.77
2022-11-14T14:15:07.455Z,16.10
2022-11-14T14:19:03.644Z,12.23
2022-11-14T14:22:33.654Z,17.52
2022-11-14T14:26:14.121Z,14.32
2022-11-14T14:33:09.635Z,15.30
2022-11-14T14:36:31.240Z,15.65
2022-11-14T14:40:02.108Z,21.90
2022-11-14T14:44:18.592Z,18.15
2022-11-14T14:48:15.902Z,19.75
2022-11-14T14:51:38.385Z,16.00
2022-11-14T14:55:02.621Z,18.88
2022-11-14T14:58:23.144Z,23.40
2022-11-14T15:01:44.512Z,29.98
2022-11-14T15:05:06.474Z,36.08
2022-11-14T15:08:33.823Z,47.58
2022-11-14T15:15:42.461Z,25.83
2022-11-14T15:19:04.755Z,25.95
2022-11-14T15:22:30.056Z,23.50
2022-11-14T15:26:09.518Z,37.03
2022-11-14T15:29:33.579Z,37.35
2022-11-14T15:33:18.722Z,31.55
2022-11-14T15:37:19.515Z,25.27
2022-11-14T15:41:28.760Z,27.08
2022-11-14T15:44:51.057Z,29.17
2022-11-14T15:48:19.963Z,31.23
2022-11-14T15:51:46.471Z,32.50
2022-11-14T15:55:24.776Z,33.58
2022-11-14T15:58:50.430Z,31.73
2022-11-14T16:02:11.148Z,28.70
2022-11-14T16:05:34.642Z,29.58
2022-11-14T16:08:56.859Z,42.38
2022-11-14T16:12:23.284Z,39.47
2022-11-14T16:15:45.829Z,44.10
2022-11-14T16:19:07.491Z,40.28
2022-11-14T16:22:32.509Z,47.60
2022-11-14T16:25:53.606Z,52.65
2022-11-14T16:29:21.687Z,44.45
2022-11-14T16:32:47.214Z,58.17
2022-11-14T16:36:11.874Z,46.50
2022-11-14T16:39:32.322Z,51.83
2022-11-14T16:43:03.499Z,59.50
2022-11-14T16:46:30.144Z,39.88
2022-11-14T16:49:52.852Z,52.35
2022-11-14T16:53:15.726Z,69.07
2022-11-14T16:56:36.439Z,64.90
2022-11-14T16:59:58.906Z,64.82
2022-11-14T17:03:19.659Z,63.28
2022-11-14T17:06:40.389Z,65.75
2022-11-14T17:10:08.477Z,78.07
2022-11-14T17:13:34.026Z,77.38
2022-11-14T17:17:16.957Z,64.00
2022-11-14T17:21:08.415Z,75.28
2022-11-14T17:25:46.711Z,84.22
2022-11-14T17:29:09.741Z,66.28
2022-11-14T17:32:56.358Z,57.47
2022-11-14T17:36:20.299Z,61.00
2022-11-14T17:39:41.198Z,73.40
2022-11-14T17:43:01.821Z,37.28
2022-11-14T17:46:23.701Z,69.10
2022-11-14T17:49:45.945Z,54.88
2022-11-14T17:53:06.541Z,65.03
2022-11-14T17:56:29.619Z,72.68
2022-11-14T17:59:55.944Z,69.97
2022-11-14T18:03:22.722Z,62.10
2022-11-14T18:06:47.467Z,64.45
2022-11-14T18:10:08.921Z,59.50
2022-11-14T18:13:29.252Z,50.92
2022-11-14T18:17:11.591Z,45.28
2022-11-14T18:20:31.100Z,43.28
2022-11-14T18:23:54.004Z,41.40
2022-11-14T18:27:14.569Z,59.08
2022-11-14T18:30:41.360Z,59.10
2022-11-14T18:34:03.143Z,54.47
2022-11-14T18:37:24.119Z,61.03
2022-11-14T18:40:45.219Z,46.92
2022-11-14T18:44:05.849Z,54.97
2022-11-14T18:47:26.740Z,51.60
2022-11-14T18:50:48.501Z,61.05
2022-11-14T18:54:14.589Z,42.70
2022-11-14T18:57:35.255Z,48.08
2022-11-14T19:00:57.556Z,51.65
2022-11-14T19:04:19.776Z,52.08
2022-11-14T19:07:40.297Z,55.95
2022-11-14T19:11:30.886Z,55.72
2022-11-14T19:14:51.943Z,62.95
2022-11-14T19:18:12.727Z,68.68
2022-11-14T19:21:33.757Z,58.92
2022-11-14T19:24:54.241Z,52.75
2022-11-14T19:28:14.941Z,54.78
2022-11-14T19:31:36.245Z,58.63
2022-11-14T19:34:56.928Z,52.22
2022-11-14T19:38:17.573Z,54.08
2022-11-14T19:41:38.895Z,56.10
2022-11-14T19:44:59.591Z,53.00
2022-11-14T19:48:20.232Z,55.05
2022-11-14T19:51:44.683Z,46.78
2022-11-14T19:55:05.441Z,32.80
2022-11-14T19:58:28.055Z,42.63
2022-11-14T20:01:56.461Z,38.08
2022-11-14T20:05:17.448Z,39.13
2022-11-14T20:08:37.743Z,34.63
2022-11-14T20:11:59.966Z,41.22
2022-11-14T20:15:20.603Z,34.80
2022-11-14T20:18:47.101Z,49.72
2022-11-14T20:22:16.103Z,45.80
2022-11-14T20:25:41.474Z,43.83
2022-11-14T20:29:09.282Z,38.17
2022-11-14T20:32:32.599Z,49.90
2022-11-14T20:35:55.179Z,37.83
2022-11-14T20:39:16.371Z,41.42
2022-11-14T20:42:38.233Z,44.63
2022-11-14T20:46:04.765Z,43.60
2022-11-14T20:49:26.726Z,44.58
2022-11-14T20:52:49.307Z,36.22
2022-11-14T20:56:12.796Z,41.20
2022-11-14T20:59:33.627Z,39.53
2022-11-14T21:03:00.041Z,37.80
2022-11-14T21:06:20.877Z,67.72
2022-11-14T21:09:41.492Z,71.53
2022-11-14T21:13:25.777Z,53.42
2022-11-14T21:16:46.562Z,65.22
2022-11-14T21:20:08.174Z,64.07
2022-11-14T21:23:29.132Z,56.35
2022-11-14T21:26:49.598Z,53.05
2022-11-14T21:30:10.302Z,57.30
2022-11-14T21:33:32.867Z,51.58
2022-11-14T21:36:53.683Z,56.80
2022-11-14T21:40:14.025Z,68.93
2022-11-14T21:43:35.121Z,60.47
2022-11-14T21:46:55.610Z,61.00
2022-11-14T21:50:18.223Z,61.30
2022-11-14T21:53:40.413Z,47.63
2022-11-14T21:57:04.327Z,50.58
2022-11-14T22:00:29.273Z,63.60
2022-11-14T22:04:08.287Z,48.75
2022-11-14T22:07:30.804Z,50.72
2022-11-14T22:10:51.703Z,53.97
2022-11-14T22:14:13.482Z,51.17
2022-11-14T22:17:33.980Z,47.90
2022-11-14T22:20:59.890Z,63.95
2022-11-14T22:24:20.674Z,57.15
2022-11-14T22:27:41.238Z,49.67
2022-11-14T22:31:19.460Z,50.00
2022-11-14T22:34:39.971Z,50.75
2022-11-14T22:38:04.968Z,60.75
2022-11-14T22:41:32.230Z,68.43
2022-11-14T22:44:53.606Z,51.72
2022-11-14T22:48:14.011Z,49.63
2022-11-14T22:51:36.649Z,49.80
2022-11-14T22:54:57.340Z,64.90
2022-11-14T22:58:18.057Z,58.83
2022-11-14T23:01:38.729Z,47.03
2022-11-14T23:04:59.378Z,43.67
2022-11-14T23:08:20.911Z,51.33
2022-11-14T23:11:41.469Z,53.17
2022-11-14T23:15:02.346Z,50.30
2022-11-14T23:18:24.169Z,56.60
2022-11-14T23:21:45.426Z,49.58
2022-11-14T23:25:06.433Z,48.00
2022-11-14T23:28:31.240Z,52.60
2022-11-14T23:31:53.431Z,44.55
2022-11-14T23:35:14.190Z,48.05
2022-11-14T23:38:35.017Z,41.97
2022-11-14T23:41:55.711Z,45.38
2022-11-14T23:45:17.943Z,41.83
2022-11-14T23:48:40.359Z,53.85
2022-11-14T23:52:01.971Z,35.40
2022-11-14T23:55:22.654Z,37.28
2022-11-14T23:58:43.223Z,52.95
